Latest Coastal Weather Observations for King Island Airport

IDT60701

Issued at 5:52 pm EDT Friday 3 December 2021 (issued every 10 minutes, with the page automatically refreshed every 10 minutes)

About coastal observations | Map of coastal stations | Coastal observations for TAS | Marine services | Other Formats
Station Details ID: 098017 Name: KING ISLAND AIRPORT Lat: -39.88 Lon: 143.89 Height: 35.42 m
Data from the previous 72 hours. | See also: Recent months at King Island Airport
Date/Time
EDT
Wind Sea
Height
m
Swell Vis
km
Cloud Weather Temp
°C
Press
MSL
hPa
Rain since
9am
mm
Dir  Spd
kts
Gust
kts
Height
m
Period
s
Dir
03/05:30pm WSW 13 19 - - - - 10 Partly cloudy - 15.1 1019.1 0.0
03/05:00pm WSW 14 18 - - - - 10 Partly cloudy - 15.4 1019.1 0.0
03/04:30pm WSW 13 18 - - - - 10 Partly cloudy - 16.2 1019.5 0.0
03/04:00pm W 13 18 - - - - 10 - - 15.6 1019.7 0.0
03/03:30pm WSW 13 18 - - - - 10 Partly cloudy - 15.6 1020.0 0.0
03/03:00pm WSW 12 16 - - - - 10 Mostly clear - 15.7 1020.1 0.0
03/02:30pm W 11 16 - - - - 10 Partly cloudy - 15.5 1020.0 0.0
03/02:00pm WSW 11 16 - - - - 10 Partly cloudy - 15.7 1020.1 0.0
03/01:30pm WSW 11 14 - - - - 10 Partly cloudy - 15.5 1020.1 0.0
03/01:00pm SW 11 16 - - - - 10 Partly cloudy - 15.6 1020.2 0.0
03/12:30pm WSW 9 15 - - - - 10 Partly cloudy - 16.2 1020.3 0.0
03/12:00pm WSW 11 16 - - - - 10 Partly cloudy - 16.2 1020.0 0.0
03/11:30am SW 13 18 - - - - 10 Partly cloudy - 16.1 1020.1 0.0
03/11:00am SW 11 16 - - - - 10 Partly cloudy - 15.4 1020.0 0.0
03/10:30am SSW 12 16 - - - - 10 Partly cloudy - 15.1 1019.8 0.0
03/10:00am SW 12 17 - - - - 10 Partly cloudy - 15.1 1019.9 0.0
03/09:30am SW 11 15 - - - - 10 Partly cloudy - 14.8 1019.9 0.0
03/09:00am WSW 12 17 - - - - 10 Mostly clear - 14.5 1019.9 1.2
03/08:30am SW 11 14 - - - - 10 Partly cloudy - 14.6 1019.7 1.2
03/08:00am SW 10 14 - - - - 10 Partly cloudy - 13.9 1019.3 1.2
03/07:30am SW 8 11 - - - - 10 Partly cloudy - 13.1 1019.2 1.2
03/07:00am SW 7 9 - - - - 10 Partly cloudy - 11.9 1019.0 1.2
03/06:30am SW 5 6 - - - - 10 Partly cloudy - 9.9 1018.7 1.2
03/06:00am SSW 3 4 - - - - 10 Partly cloudy - 9.2 1018.4 1.2
03/05:30am S 4 5 - - - - 10 - - 9.2 1018.0 1.2
03/05:00am SSW 5 6 - - - - 10 Partly cloudy - 10.0 1017.9 1.2
03/04:30am SSW 5 7 - - - - 10 Partly cloudy - 10.5 1017.7 1.2
03/04:00am SW 7 8 - - - - 10 Partly cloudy - 11.2 1017.6 1.2
03/03:30am SW 7 11 - - - - 10 Partly cloudy - 12.4 1017.6 1.2
03/03:21am WSW 8 12 - - - - 10 Partly cloudy - 12.7 1017.6 1.2
03/03:02am W 10 15 - - - - 5 Partly cloudy - 13.4 1017.7 0.8
03/03:00am W 9 13 - - - - 9 Cloudy Drizzle 13.7 1017.7 0.2
03/02:30am WNW 7 11 - - - - 10 Partly cloudy - 13.1 1017.6 0.2
03/02:00am W 6 9 - - - - 10 Partly cloudy - 13.1 1017.6 0.2
03/01:30am W 5 7 - - - - 10 Partly cloudy - 12.7 1017.8 0.2
03/01:00am WSW 6 7 - - - - 10 Partly cloudy - 11.8 1017.8 0.2
03/12:30am WSW 6 8 - - - - 10 - - 12.0 1018.1 0.2
03/12:00am WSW 8 11 - - - - 10 Mostly clear - 12.7 1018.1 0.2
 
Date/Time
EDT
Wind Sea
Height
m
Swell Vis
km
Cloud Weather Temp
°C
Press
MSL
hPa
Rain since
9am
mm
Dir  Spd
kts
Gust
kts
Height
m
Period
s
Dir
02/11:30pm WSW 10 13 - - - - 10 Partly cloudy - 13.1 1018.1 0.2
02/11:00pm WSW 10 14 - - - - 10 Partly cloudy - 13.4 1018.0 0.2
02/10:30pm WSW 11 15 - - - - 10 Partly cloudy - 13.0 1017.5 0.2
02/10:00pm WSW 13 17 - - - - 10 Cloudy - 13.8 1017.2 0.2
02/09:30pm WSW 11 15 - - - - 10 Cloudy - 13.7 1016.9 0.2
02/09:00pm WSW 14 19 - - - - 10 Mostly cloudy - 13.3 1016.4 0.2
02/08:30pm SW 12 18 - - - - 10 Partly cloudy - 13.2 1016.2 0.2
02/08:00pm SW 14 19 - - - - 10 Partly cloudy - 13.3 1015.6 0.2
02/07:30pm WSW 13 21 - - - - 10 Partly cloudy - 13.7 1015.2 0.2
02/07:00pm SW 16 24 - - - - 10 Partly cloudy - 14.0 1014.7 0.2
02/06:30pm SW 15 20 - - - - 10 Partly cloudy - 14.5 1014.3 0.2
02/06:29pm SW 15 20 - - - - 10 Partly cloudy - 14.6 1014.3 0.2
02/06:00pm SW 14 18 - - - - 10 Cloudy - 14.0 1014.1 0.2
02/05:30pm SW 15 21 - - - - 10 Cloudy - 13.7 1013.4 0.2
02/05:00pm SW 15 21 - - - - 9 Partly cloudy - 14.1 1012.9 0.2
02/04:30pm WSW 9 12 - - - - 10 Cloudy - 16.2 1012.6 0.2
02/04:00pm WSW 9 11 - - - - 10 Partly cloudy - 16.5 1012.8 0.2
02/03:51pm WSW 8 12 - - - - 10 Partly cloudy - 16.8 1012.7 0.2
02/03:30pm W 7 9 - - - - 10 Partly cloudy - 17.5 1013.0 0.2
02/03:00pm W 9 13 - - - - 10 Cloudy - 17.8 1013.1 0.2
02/02:42pm W 8 11 - - - - 10 Partly cloudy - 17.8 1013.2 0.2
02/02:30pm WSW 6 11 - - - - 10 Partly cloudy - 17.5 1013.3 0.2
02/02:26pm WSW 6 8 - - - - 10 Partly cloudy - 17.5 1013.3 0.2
02/02:00pm SW 6 8 - - - - 10 Partly cloudy - 16.5 1013.2 0.2
02/01:49pm SW 8 11 - - - - 10 Cloudy - 16.1 1013.4 0.2
02/01:39pm WSW 7 10 - - - - 10 Cloudy - 16.6 1013.3 0.0
02/01:30pm WSW 7 10 - - - - 10 Cloudy - 17.3 1013.5 0.0
02/01:00pm WSW 7 10 - - - - 10 Cloudy - 16.5 1013.8 0.0
02/12:30pm SW 5 9 - - - - 10 Cloudy - 17.3 1013.8 0.0
02/12:00pm SW 6 9 - - - - 10 Cloudy - 16.7 1014.0 0.0
02/11:30am SW 5 7 - - - - 10 Cloudy - 16.1 1013.9 0.0
02/11:00am SSW 5 8 - - - - 10 Cloudy - 15.7 1014.1 0.0
02/10:30am SSW 7 9 - - - - 10 Cloudy - 15.6 1014.0 0.0
02/10:00am SW 6 8 - - - - 10 Cloudy - 15.4 1014.0 0.0
02/09:30am SSW 6 8 - - - - 10 Cloudy - 15.1 1013.8 0.0
02/09:14am SW 7 10 - - - - 10 Cloudy - 14.9 1013.7 0.0
02/09:00am SW 7 9 - - - - 2 Cloudy - 15.1 1013.7 0.0
02/08:31am WSW 6 9 - - - - 1 Cloudy - 14.5 1013.7 0.0
02/08:30am WSW 6 9 - - - - 0.9 Cloudy - 14.6 1013.7 0.0
02/08:00am SW 3 5 - - - - 0.3 Cloudy - 14.2 1013.1 0.0
02/07:30am ESE 1 4 - - - - 0.2 Cloudy - 13.6 1012.9 0.0
02/07:00am SE 1 4 - - - - 0.3 Cloudy - 13.2 1012.8 0.0
02/06:30am CALM 0 0 - - - - 0.2 Cloudy - 12.6 1012.8 0.0
02/06:00am WNW 3 5 - - - - 0.1 Cloudy - 13.0 1012.6 0.0
02/05:30am CALM 0 0 - - - - 0.4 Cloudy - 13.1 1012.4 0.0
02/05:20am E 1 4 - - - - 0.9 Partly cloudy - 12.7 1012.1 0.0
02/05:08am ESE 5 7 - - - - 3 Partly cloudy - 12.5 1011.9 0.0
02/05:03am ESE 5 7 - - - - 5 Partly cloudy - 12.4 1011.8 0.0
02/05:00am E 4 7 - - - - 6 Partly cloudy - 12.3 1011.8 0.0
02/04:30am SE 4 6 - - - - 10 - - 12.9 1011.5 0.0
02/04:00am SE 6 7 - - - - 10 - - 13.0 1011.5 0.0
02/03:30am SSE 4 6 - - - - 10 - - 12.8 1011.7 0.0
02/03:00am S 3 4 - - - - 8 - - 13.2 1012.2 0.0
02/02:31am SSE 4 5 - - - - 10 Partly cloudy - 13.9 1012.3 0.0
02/02:30am SSE 4 5 - - - - 10 Partly cloudy - 13.9 1012.3 0.0
02/02:00am SE 5 8 - - - - 10 Cloudy - 14.4 1012.7 0.0
02/01:30am SE 6 8 - - - - 9 Cloudy - 14.7 1012.9 0.0
02/01:00am SE 6 8 - - - - 9 Cloudy - 14.8 1013.4 0.0
02/12:38am SE 6 9 - - - - 6 Cloudy - 14.8 1013.6 0.0
02/12:30am SE 6 9 - - - - 6 Cloudy - 14.7 1013.5 0.0
02/12:00am SE 5 8 - - - - 2 Cloudy - 14.5 1013.6 0.0
 
Date/Time
EDT
Wind Sea
Height
m
Swell Vis
km
Cloud Weather Temp
°C
Press
MSL
hPa
Rain since
9am
mm
Dir  Spd
kts
Gust
kts
Height
m
Period
s
Dir
01/11:33pm ESE 7 9 - - - - 5 Cloudy - 14.2 1013.6 0.0
01/11:30pm ESE 7 9 - - - - 7 Cloudy - 14.2 1013.6 0.0
01/11:01pm SE 1 5 - - - - 10 Partly cloudy - 13.5 1013.5 0.0
01/11:00pm SE 1 5 - - - - 10 Partly cloudy - 13.5 1013.5 0.0
01/10:45pm SSE 3 5 - - - - 10 Partly cloudy - 13.8 1013.6 0.0
01/10:39pm SSE 4 5 - - - - 10 Partly cloudy - 13.8 1013.5 0.0
01/10:30pm SSE 5 8 - - - - 6 Partly cloudy - 13.9 1013.4 0.0
01/10:00pm SSW 11 15 - - - - 4 Cloudy - 14.5 1013.3 0.0
01/09:30pm SSW 10 13 - - - - 2 Partly cloudy - 14.8 1013.4 0.0
01/09:28pm SSW 10 13 - - - - 3 Partly cloudy - 14.9 1013.4 0.0
01/09:24pm SSW 10 13 - - - - 5 Partly cloudy - 14.9 1013.4 0.0
01/09:00pm SSW 10 12 - - - - 10 Cloudy - 15.4 1013.4 0.0
01/08:30pm SSW 10 12 - - - - 10 - - 15.9 1013.4 0.0
01/08:00pm SSW 11 14 - - - - 10 - - 16.6 1013.1 0.0
01/07:30pm SSW 9 11 - - - - 10 - - 17.8 1012.5 0.0
01/07:00pm SSW 11 14 - - - - 10 - - 17.8 1012.2 0.0
01/06:30pm SSW 12 14 - - - - 10 - - 18.2 1012.1 0.0
01/06:00pm SSW 10 11 - - - - 10 Mostly clear - 19.2 1011.7 0.0
01/05:30pm SSW 9 12 - - - - 10 - - 20.3 1011.8 0.0
01/05:00pm SW 8 11 - - - - 10 - - 19.8 1012.0 0.0
01/04:30pm SSW 13 15 - - - - 10 - - 18.9 1011.8 0.0
01/04:00pm SSW 14 16 - - - - 10 - - 19.7 1012.0 0.0
01/03:30pm SW 12 15 - - - - 10 - - 20.5 1012.6 0.0
01/03:00pm WSW 15 19 - - - - 10 Mostly clear - 21.3 1012.3 0.0
01/02:56pm W 14 19 - - - - 10 - - 20.3 1012.2 0.0
01/02:30pm SW 5 10 - - - - 10 - - 25.4 1011.7 0.0
01/02:00pm SSW 5 8 - - - - 10 - - 24.2 1011.9 0.0
01/01:30pm WSW 5 8 - - - - 10 - - 23.0 1012.1 0.0
01/01:00pm SW 6 10 - - - - 10 - - 22.9 1012.3 0.0
01/12:30pm SW 7 10 - - - - 10 - - 23.2 1012.2 0.0
01/12:00pm W 7 9 - - - - 10 Partly cloudy - 21.0 1012.2 0.0
01/11:30am WNW 5 7 - - - - 10 - - 21.5 1012.2 0.0
01/11:00am WNW 7 10 - - - - 10 Partly cloudy - 21.1 1012.2 0.0
01/10:30am NNE 7 9 - - - - 10 Partly cloudy - 19.2 1011.6 0.0
01/10:00am WNW 11 17 - - - - 10 - - 19.1 1012.5 0.0
01/09:30am NE 5 7 - - - - 10 - - 21.1 1011.5 0.0
01/09:00am ENE 9 12 - - - - 10 Partly cloudy - 20.4 1010.9 0.0
01/08:30am ENE 9 12 - - - - 10 Partly cloudy - 18.4 1010.9 0.0
01/08:00am ENE 11 14 - - - - 10 - - 17.5 1010.7 0.0
01/07:30am E 9 12 - - - - 10 - - 17.6 1010.4 0.0
01/07:00am E 11 14 - - - - 10 - - 16.9 1010.1 0.0
01/06:30am E 10 12 - - - - 10 - - 16.0 1010.1 0.0
01/06:00am E 9 12 - - - - 10 - - 15.5 1010.1 0.0
01/05:00am E 10 13 - - - - 10 - - 16.0 1009.8 0.0
01/04:30am ENE 11 14 - - - - 10 - - 16.3 1009.7 0.0
01/04:00am E 10 13 - - - - 10 - - 15.5 1009.8 0.0
01/03:30am E 11 13 - - - - 10 - - 15.6 1010.0 0.0
01/03:00am E 10 14 - - - - 10 Mostly cloudy - 15.4 1010.2 0.0
01/02:30am E 9 12 - - - - 10 - - 15.7 1010.6 0.0
01/02:00am E 8 10 - - - - 10 - - 15.2 1011.0 0.0
01/01:30am E 8 10 - - - - 10 - - 15.2 1011.3 0.0
01/01:00am E 9 13 - - - - 10 - - 15.6 1011.5 0.0
01/12:30am E 10 12 - - - - 10 - - 15.5 1011.8 0.0
01/12:00am E 11 13 - - - - 10 Mostly cloudy - 15.2 1012.0 0.0
 
Date/Time
EDT
Wind Sea
Height
m
Swell Vis
km
Cloud Weather Temp
°C
Press
MSL
hPa
Rain since
9am
mm
Dir  Spd
kts
Gust
kts
Height
m
Period
s
Dir
30/11:30pm E 10 14 - - - - 10 - - 15.0 1012.2 0.0
30/11:00pm E 11 14 - - - - 10 - - 14.9 1012.3 0.0
30/10:30pm E 11 14 - - - - 10 - - 14.8 1012.4 0.0
30/10:00pm E 11 13 - - - - 10 - - 14.7 1012.3 0.0
30/09:30pm E 11 14 - - - - 10 - - 14.7 1012.3 0.0
30/09:00pm E 11 16 - - - - 10 - - 15.0 1012.2 0.0
30/08:30pm E 11 16 - - - - 10 - - 15.6 1012.0 0.0
30/08:00pm E 12 16 - - - - 10 - - 16.4 1012.0 0.0
30/07:30pm E 13 17 - - - - 10 - - 17.2 1011.8 0.0
30/07:00pm E 14 18 - - - - 10 - - 17.9 1011.7 0.0
30/06:30pm E 12 16 - - - - 10 - - 19.3 1011.6 0.0
30/06:00pm E 12 15 - - - - 10 - - 19.8 1011.7 0.0

Other formats

Comma delimited format used in spreadsheet applications
http://www.bom.gov.au/fwo/IDT60701/IDT60701.94850.axf

JavaScript Object Notation format (JSON) in row-major order
http://www.bom.gov.au/fwo/IDT60701/IDT60701.94850.json

Data quality

Most of these data are generated automatically and are frequently updated. Quality checks on data are not normally performed. It is possible for incorrect values to appear. Refer to information at About Latest Weather Observations and please check the disclaimer before using these data.